ЛЕТНЫЕ ШКОЛЫ

Flying Academy США

Flying Academy США

Майами, Флорида        Температура 27 °C

Flying Academy  ЕВРОПА

Flying Academy ЕВРОПА

Прага, Брно, Чешская Республика        Температура 16 °C


Новости

Летние каникулы уже окончены и 17го сентября Flying Academy проводит День Открытых Дверей для новых абитуриентов!

Flying Academy приглашает всех желающих посетить День открытых дверей, который пройдет в субботу 17го сентября, начало в 10:00. Посетите одну из наших баз в Чехии или США, чтобы узнать, почему мы являемся одной из лидирующих школ по лётной подготовке.
Наши консультанты предоставят Вам информацию и подробное Расскажут о курсах профессиональной подготовки как для частных, так и для коммерческих пилотов. Особое внимание во время мероприятния мы уделим возможности сочетания полетов как в Европе, так и в США. Будучи единственной академией,предоставляющей лёную подготовку такого рода, мы подробно расскажем об этом удивительном опыте полетов и в Европе, и в Америке. Присоединяйтесь к нам, чтобы узнать больше! Вы сможете узнать больше о летной подготовке в Чехии и США, штат Флорида. Наш персонал ознакомит Вас с нашими тренировочными базами, а также покажет наш воздушный парк, с возможностью ознакомительного полета.
Каждый участник получит специальную скидку на обучение. Для участия необходимо зарегистрироваться онлайн.
Зарегистрируйтесь сегодня и приходите к нам в субботу, 17го сентября!

читайте дальше >>

Glorious Wings открывает двери Flying Academy для Омана

Встреча, организованная на прошлой неделе в Омане представителями Flying Academy и компанией Glorious Wings, собрала более 100 человек, увлеченных авиацией.
Уже второй раз в этом году Flying Academy проводит в Мускате трёхдневную открытую сессию совместно с партнёром Glorious Wings. Мы были приятно удивлены тем, что большинство гостей нашего мероприятия прибыли издалека, для того чтобы познакомиться с нами и узнать подробности о курсах летной подготовки, которые мы предлагаем. Это был ценный опыт для нас, и, как мы узнали из многочисленных отзывов, также ценный опыт для наших будущих студентов из Омана. Главный вектор мероприятия был направлен на наш опыт летной подготовки в рамках Европейского Агентства Авиационной Безопасности (EASA), на содержание предлагаемых курсов и на детали, делающие Flying Academy выдающейся организацией, обеспечивающей летную подготовку.

читайте дальше >>

Time Building Miami - 82$/ лётный час

Time Building является главным ресурсом для приобретения опыта полётов, особенно для молодых профессиональных пилотов, которые готовятся к работе в авиалиниях.
Высокий уровень лётной подготовки это большой плюс при прохождении собеседования. Для того, чтобы поддержать пилотов с небольшим количеством лётных часов на их пути к капитанскому креслу, Flying Academy предлагает пакет налёта часов в Майами по сниженной цене!
При покупке пакета от 101 лётного часа, вдобавок к отличной погоде и невероятному опыту, вам предоставляется Cessna 152 по привлекательной цене 82$/ лётный час.
Стоимость топлива уже включена. В дополнение к сказанному выше, наши инструкторы будут рады ознакомить вас с местностью, воздушным пространством и помочь в планировании полетов. Вам также посоветуют красивые места для полетов, чтобы сделать Ваше время в Майми по-настоящему незабываемым.

читайте дальше >>

archive

Blog

Time building в Майами это отличный способ улучшить навыки пилотирования и хорошо провести свободное время

Милан, наш студент из Чехии, только что вернулся из Майами, где он провёл 28 дней и налетал 75 часов по программе Time Building. Для него это был не только профессиональный опыт, но и отличные семейные каникулы. "Вместе с моей женой мы побывали в Naples, Stuart, Tampa, центре космических запусков NASA, на студии Universal в Orlando и в многих других местах на побережье. Это отличная возможность как насладиться полетами, так и посетить туристические места штата Флорида.
Вы можете найти больше о Милане и его времени в Майами в нашем блоге.

читайте дальше >>

archive

Актуальная погода

LKKV

LKKV 300200Z VRB02KT 9999 FEW023 10/09 Q1024

LKPR

LKPR 300230Z 33005KT 9999 BKN036 15/12 Q1023 NOSIG

LKTB

LKTB 300230Z 34007KT CAVOK 19/15 Q1020 NOSIG